sensor_id;sensor_type;location;lat;lon;timestamp;temperature;humidity
74294;DHT22;64044;59.904;10.738;2023-06-14T00:02:05;22.10;53.20
74294;DHT22;64044;59.904;10.738;2023-06-14T00:04:34;22.10;52.70
74294;DHT22;64044;59.904;10.738;2023-06-14T00:07:00;22.10;52.60
74294;DHT22;64044;59.904;10.738;2023-06-14T00:09:26;22.10;52.20
74294;DHT22;64044;59.904;10.738;2023-06-14T00:11:51;22.10;52.10
74294;DHT22;64044;59.904;10.738;2023-06-14T00:14:17;22.10;51.90
74294;DHT22;64044;59.904;10.738;2023-06-14T00:16:43;22.10;51.90
74294;DHT22;64044;59.904;10.738;2023-06-14T00:19:09;22.10;52.20
74294;DHT22;64044;59.904;10.738;2023-06-14T00:21:39;22.10;52.40
74294;DHT22;64044;59.904;10.738;2023-06-14T00:24:04;22.10;52.30
74294;DHT22;64044;59.904;10.738;2023-06-14T00:26:30;22.10;52.20
74294;DHT22;64044;59.904;10.738;2023-06-14T00:28:56;22.10;52.10
74294;DHT22;64044;59.904;10.738;2023-06-14T00:31:22;22.10;51.90
74294;DHT22;64044;59.904;10.738;2023-06-14T00:33:48;22.10;52.00
74294;DHT22;64044;59.904;10.738;2023-06-14T00:36:14;22.10;52.70
74294;DHT22;64044;59.904;10.738;2023-06-14T00:38:40;22.10;52.90
74294;DHT22;64044;59.904;10.738;2023-06-14T00:41:06;22.10;53.10
74294;DHT22;64044;59.904;10.738;2023-06-14T00:43:31;22.10;53.20
74294;DHT22;64044;59.904;10.738;2023-06-14T00:45:57;22.10;53.20
74294;DHT22;64044;59.904;10.738;2023-06-14T00:48:24;22.10;53.10
74294;DHT22;64044;59.904;10.738;2023-06-14T00:50:50;22.10;53.30
74294;DHT22;64044;59.904;10.738;2023-06-14T00:53:18;22.00;53.10
74294;DHT22;64044;59.904;10.738;2023-06-14T00:55:46;22.00;53.20
74294;DHT22;64044;59.904;10.738;2023-06-14T00:58:12;22.00;53.20
74294;DHT22;64044;59.904;10.738;2023-06-14T01:00:39;22.00;52.90
74294;DHT22;64044;59.904;10.738;2023-06-14T01:03:04;22.00;52.80
74294;DHT22;64044;59.904;10.738;2023-06-14T01:05:31;22.00;52.80
74294;DHT22;64044;59.904;10.738;2023-06-14T01:08:28;22.00;52.80
74294;DHT22;64044;59.904;10.738;2023-06-14T01:11:09;22.00;53.10
74294;DHT22;64044;59.904;10.738;2023-06-14T01:13:43;22.00;53.50
74294;DHT22;64044;59.904;10.738;2023-06-14T01:16:11;22.00;53.90
74294;DHT22;64044;59.904;10.738;2023-06-14T01:18:37;22.00;53.50
74294;DHT22;64044;59.904;10.738;2023-06-14T01:21:03;21.90;53.40
74294;DHT22;64044;59.904;10.738;2023-06-14T01:23:31;21.90;53.50
74294;DHT22;64044;59.904;10.738;2023-06-14T01:26:01;21.90;53.70
74294;DHT22;64044;59.904;10.738;2023-06-14T01:28:29;21.90;53.80
74294;DHT22;64044;59.904;10.738;2023-06-14T01:31:00;21.90;53.40
74294;DHT22;64044;59.904;10.738;2023-06-14T01:33:29;21.80;53.30
74294;DHT22;64044;59.904;10.738;2023-06-14T01:35:56;21.80;53.30
74294;DHT22;64044;59.904;10.738;2023-06-14T01:38:25;21.80;53.30
74294;DHT22;64044;59.904;10.738;2023-06-14T01:40:52;21.80;53.10
74294;DHT22;64044;59.904;10.738;2023-06-14T01:43:20;21.80;53.00
74294;DHT22;64044;59.904;10.738;2023-06-14T01:45:47;21.80;53.20
74294;DHT22;64044;59.904;10.738;2023-06-14T01:48:17;21.70;53.60
74294;DHT22;64044;59.904;10.738;2023-06-14T01:50:42;21.70;53.60
74294;DHT22;64044;59.904;10.738;2023-06-14T01:53:09;21.70;53.40
74294;DHT22;64044;59.904;10.738;2023-06-14T01:55:35;21.70;53.50
74294;DHT22;64044;59.904;10.738;2023-06-14T01:58:06;21.70;53.50
74294;DHT22;64044;59.904;10.738;2023-06-14T02:00:32;21.60;53.70
74294;DHT22;64044;59.904;10.738;2023-06-14T02:02:58;21.60;53.40
74294;DHT22;64044;59.904;10.738;2023-06-14T02:05:24;21.60;53.50
74294;DHT22;64044;59.904;10.738;2023-06-14T02:07:49;21.60;53.70
74294;DHT22;64044;59.904;10.738;2023-06-14T02:10:16;21.60;53.90
74294;DHT22;64044;59.904;10.738;2023-06-14T02:12:43;21.60;54.00
74294;DHT22;64044;59.904;10.738;2023-06-14T02:15:09;21.60;54.10
74294;DHT22;64044;59.904;10.738;2023-06-14T02:17:43;21.60;54.20
74294;DHT22;64044;59.904;10.738;2023-06-14T02:20:09;21.60;54.40
74294;DHT22;64044;59.904;10.738;2023-06-14T02:22:35;21.60;54.50
74294;DHT22;64044;59.904;10.738;2023-06-14T02:25:00;21.50;54.70
74294;DHT22;64044;59.904;10.738;2023-06-14T02:27:26;21.50;54.90
74294;DHT22;64044;59.904;10.738;2023-06-14T02:29:52;21.50;55.00
74294;DHT22;64044;59.904;10.738;2023-06-14T02:32:18;21.50;55.00
74294;DHT22;64044;59.904;10.738;2023-06-14T02:34:43;21.50;55.00
74294;DHT22;64044;59.904;10.738;2023-06-14T02:37:09;21.50;54.70
74294;DHT22;64044;59.904;10.738;2023-06-14T02:39:36;21.50;54.70
74294;DHT22;64044;59.904;10.738;2023-06-14T02:42:02;21.50;54.70
74294;DHT22;64044;59.904;10.738;2023-06-14T02:44:28;21.50;55.00
74294;DHT22;64044;59.904;10.738;2023-06-14T02:46:55;21.50;55.40
74294;DHT22;64044;59.904;10.738;2023-06-14T02:49:22;21.50;55.70
74294;DHT22;64044;59.904;10.738;2023-06-14T02:51:48;21.50;55.80
74294;DHT22;64044;59.904;10.738;2023-06-14T02:54:14;21.40;55.80
74294;DHT22;64044;59.904;10.738;2023-06-14T02:56:39;21.40;56.00
74294;DHT22;64044;59.904;10.738;2023-06-14T02:59:06;21.40;56.10
74294;DHT22;64044;59.904;10.738;2023-06-14T03:01:33;21.40;56.10
74294;DHT22;64044;59.904;10.738;2023-06-14T03:04:09;21.40;56.30
74294;DHT22;64044;59.904;10.738;2023-06-14T03:06:35;21.30;56.20
74294;DHT22;64044;59.904;10.738;2023-06-14T03:09:02;21.30;56.10
74294;DHT22;64044;59.904;10.738;2023-06-14T03:11:31;21.30;56.20
74294;DHT22;64044;59.904;10.738;2023-06-14T03:13:57;21.30;56.20
74294;DHT22;64044;59.904;10.738;2023-06-14T03:16:23;21.20;56.10
74294;DHT22;64044;59.904;10.738;2023-06-14T03:18:52;21.20;56.00
74294;DHT22;64044;59.904;10.738;2023-06-14T03:21:19;21.20;56.00
74294;DHT22;64044;59.904;10.738;2023-06-14T03:23:46;21.20;55.70
74294;DHT22;64044;59.904;10.738;2023-06-14T03:26:12;21.20;55.30
74294;DHT22;64044;59.904;10.738;2023-06-14T03:28:43;21.20;55.40
74294;DHT22;64044;59.904;10.738;2023-06-14T03:31:09;21.20;55.40
74294;DHT22;64044;59.904;10.738;2023-06-14T03:33:35;21.20;55.00
74294;DHT22;64044;59.904;10.738;2023-06-14T03:36:01;21.20;55.00
74294;DHT22;64044;59.904;10.738;2023-06-14T03:38:27;21.20;54.90
74294;DHT22;64044;59.904;10.738;2023-06-14T03:40:53;21.20;54.90
74294;DHT22;64044;59.904;10.738;2023-06-14T03:43:19;21.20;54.90
74294;DHT22;64044;59.904;10.738;2023-06-14T03:45:45;21.20;55.10
74294;DHT22;64044;59.904;10.738;2023-06-14T03:48:11;21.20;55.30
74294;DHT22;64044;59.904;10.738;2023-06-14T03:50:36;21.20;55.50
74294;DHT22;64044;59.904;10.738;2023-06-14T03:53:06;21.20;55.30
74294;DHT22;64044;59.904;10.738;2023-06-14T03:55:32;21.20;55.40
74294;DHT22;64044;59.904;10.738;2023-06-14T03:57:58;21.20;55.30
74294;DHT22;64044;59.904;10.738;2023-06-14T04:00:24;21.20;55.20
74294;DHT22;64044;59.904;10.738;2023-06-14T04:02:50;21.20;55.00
74294;DHT22;64044;59.904;10.738;2023-06-14T04:05:16;21.20;54.80
74294;DHT22;64044;59.904;10.738;2023-06-14T04:07:45;21.30;55.10
74294;DHT22;64044;59.904;10.738;2023-06-14T04:10:12;21.30;55.00
74294;DHT22;64044;59.904;10.738;2023-06-14T04:12:38;21.30;55.10
74294;DHT22;64044;59.904;10.738;2023-06-14T04:15:05;21.30;55.30
74294;DHT22;64044;59.904;10.738;2023-06-14T04:17:34;21.40;55.50
74294;DHT22;64044;59.904;10.738;2023-06-14T04:20:01;21.40;55.50
74294;DHT22;64044;59.904;10.738;2023-06-14T04:22:29;21.40;55.40
74294;DHT22;64044;59.904;10.738;2023-06-14T04:24:56;21.40;55.40
74294;DHT22;64044;59.904;10.738;2023-06-14T04:27:23;21.50;55.50
74294;DHT22;64044;59.904;10.738;2023-06-14T04:29:52;21.50;55.40
74294;DHT22;64044;59.904;10.738;2023-06-14T04:32:24;21.50;55.40
74294;DHT22;64044;59.904;10.738;2023-06-14T04:34:55;21.50;55.40
74294;DHT22;64044;59.904;10.738;2023-06-14T04:37:21;21.50;55.40
74294;DHT22;64044;59.904;10.738;2023-06-14T04:39:48;21.50;55.40
74294;DHT22;64044;59.904;10.738;2023-06-14T04:42:14;21.50;55.30
74294;DHT22;64044;59.904;10.738;2023-06-14T04:44:44;21.50;55.40
74294;DHT22;64044;59.904;10.738;2023-06-14T04:47:10;21.50;55.40
74294;DHT22;64044;59.904;10.738;2023-06-14T04:49:38;21.60;55.50
74294;DHT22;64044;59.904;10.738;2023-06-14T04:52:06;21.60;55.50
74294;DHT22;64044;59.904;10.738;2023-06-14T04:54:32;21.60;55.50
74294;DHT22;64044;59.904;10.738;2023-06-14T04:56:59;21.60;55.70
74294;DHT22;64044;59.904;10.738;2023-06-14T04:59:25;21.60;55.40
74294;DHT22;64044;59.904;10.738;2023-06-14T05:01:51;21.60;55.30
74294;DHT22;64044;59.904;10.738;2023-06-14T05:04:17;21.60;55.00
74294;DHT22;64044;59.904;10.738;2023-06-14T05:06:44;21.60;55.10
74294;DHT22;64044;59.904;10.738;2023-06-14T05:09:16;21.70;55.10
74294;DHT22;64044;59.904;10.738;2023-06-14T05:11:42;21.70;55.00
74294;DHT22;64044;59.904;10.738;2023-06-14T05:14:13;21.70;54.80
74294;DHT22;64044;59.904;10.738;2023-06-14T05:16:39;21.70;54.80
74294;DHT22;64044;59.904;10.738;2023-06-14T05:19:05;21.70;54.90
74294;DHT22;64044;59.904;10.738;2023-06-14T05:21:31;21.80;54.90
74294;DHT22;64044;59.904;10.738;2023-06-14T05:23:59;21.80;54.90
74294;DHT22;64044;59.904;10.738;2023-06-14T05:26:25;21.80;55.00
74294;DHT22;64044;59.904;10.738;2023-06-14T05:28:54;21.90;55.00
74294;DHT22;64044;59.904;10.738;2023-06-14T05:31:22;21.90;54.60
74294;DHT22;64044;59.904;10.738;2023-06-14T05:33:49;22.00;54.90
74294;DHT22;64044;59.904;10.738;2023-06-14T05:36:15;22.00;54.90
74294;DHT22;64044;59.904;10.738;2023-06-14T05:38:41;22.00;55.30
74294;DHT22;64044;59.904;10.738;2023-06-14T05:41:06;22.10;55.50
74294;DHT22;64044;59.904;10.738;2023-06-14T05:43:32;22.00;55.10
74294;DHT22;64044;59.904;10.738;2023-06-14T05:45:58;22.10;55.10
74294;DHT22;64044;59.904;10.738;2023-06-14T05:48:24;22.10;55.10
74294;DHT22;64044;59.904;10.738;2023-06-14T05:50:49;22.10;55.30
74294;DHT22;64044;59.904;10.738;2023-06-14T05:53:15;22.10;55.30
74294;DHT22;64044;59.904;10.738;2023-06-14T05:55:41;22.10;55.40
74294;DHT22;64044;59.904;10.738;2023-06-14T05:58:06;22.20;55.30
74294;DHT22;64044;59.904;10.738;2023-06-14T06:00:32;22.20;55.20
74294;DHT22;64044;59.904;10.738;2023-06-14T06:02:58;22.20;55.00
74294;DHT22;64044;59.904;10.738;2023-06-14T06:05:24;22.20;55.00
74294;DHT22;64044;59.904;10.738;2023-06-14T06:07:50;22.20;54.60
74294;DHT22;64044;59.904;10.738;2023-06-14T06:10:16;22.30;54.60
74294;DHT22;64044;59.904;10.738;2023-06-14T06:12:42;22.30;54.40
74294;DHT22;64044;59.904;10.738;2023-06-14T06:15:08;22.30;54.40
74294;DHT22;64044;59.904;10.738;2023-06-14T06:17:37;22.40;54.30
74294;DHT22;64044;59.904;10.738;2023-06-14T06:20:04;22.40;54.00
74294;DHT22;64044;59.904;10.738;2023-06-14T06:22:31;22.40;54.00
74294;DHT22;64044;59.904;10.738;2023-06-14T06:24:57;22.50;53.70
74294;DHT22;64044;59.904;10.738;2023-06-14T06:27:23;22.50;53.40
74294;DHT22;64044;59.904;10.738;2023-06-14T06:29:48;22.60;53.30
74294;DHT22;64044;59.904;10.738;2023-06-14T06:32:15;22.60;53.20
74294;DHT22;64044;59.904;10.738;2023-06-14T06:34:41;22.60;53.00
74294;DHT22;64044;59.904;10.738;2023-06-14T06:37:07;22.60;52.90
74294;DHT22;64044;59.904;10.738;2023-06-14T06:39:33;22.70;52.80
74294;DHT22;64044;59.904;10.738;2023-06-14T06:41:58;22.80;52.70
74294;DHT22;64044;59.904;10.738;2023-06-14T06:44:24;22.80;53.00
74294;DHT22;64044;59.904;10.738;2023-06-14T06:46:50;22.90;52.80
74294;DHT22;64044;59.904;10.738;2023-06-14T06:49:16;22.90;52.80
74294;DHT22;64044;59.904;10.738;2023-06-14T06:51:42;23.00;52.70
74294;DHT22;64044;59.904;10.738;2023-06-14T06:54:11;23.00;53.10
74294;DHT22;64044;59.904;10.738;2023-06-14T06:56:37;23.00;53.80
74294;DHT22;64044;59.904;10.738;2023-06-14T06:59:02;23.00;53.80
74294;DHT22;64044;59.904;10.738;2023-06-14T07:01:28;23.00;53.70
74294;DHT22;64044;59.904;10.738;2023-06-14T07:03:55;23.00;53.80
74294;DHT22;64044;59.904;10.738;2023-06-14T07:06:21;23.00;53.80
74294;DHT22;64044;59.904;10.738;2023-06-14T07:08:47;23.00;54.00
74294;DHT22;64044;59.904;10.738;2023-06-14T07:11:16;22.90;53.90
74294;DHT22;64044;59.904;10.738;2023-06-14T07:13:41;22.90;54.00
74294;DHT22;64044;59.904;10.738;2023-06-14T07:16:07;22.90;54.20
74294;DHT22;64044;59.904;10.738;2023-06-14T07:18:33;22.90;54.10
74294;DHT22;64044;59.904;10.738;2023-06-14T07:20:58;22.80;54.20
74294;DHT22;64044;59.904;10.738;2023-06-14T07:23:24;22.80;54.10
74294;DHT22;64044;59.904;10.738;2023-06-14T07:25:50;22.80;54.00
74294;DHT22;64044;59.904;10.738;2023-06-14T07:28:17;22.80;54.00
74294;DHT22;64044;59.904;10.738;2023-06-14T07:30:43;22.80;54.30
74294;DHT22;64044;59.904;10.738;2023-06-14T07:33:09;22.90;54.50
74294;DHT22;64044;59.904;10.738;2023-06-14T07:35:36;22.90;54.70
74294;DHT22;64044;59.904;10.738;2023-06-14T07:38:02;22.90;54.60
74294;DHT22;64044;59.904;10.738;2023-06-14T07:40:28;22.90;54.30
74294;DHT22;64044;59.904;10.738;2023-06-14T07:42:54;23.00;54.40
74294;DHT22;64044;59.904;10.738;2023-06-14T07:45:20;23.00;54.50
74294;DHT22;64044;59.904;10.738;2023-06-14T07:47:46;23.00;54.50
74294;DHT22;64044;59.904;10.738;2023-06-14T07:50:12;23.00;54.60
74294;DHT22;64044;59.904;10.738;2023-06-14T07:52:39;23.00;54.50
74294;DHT22;64044;59.904;10.738;2023-06-14T07:55:05;23.00;54.70
74294;DHT22;64044;59.904;10.738;2023-06-14T07:57:31;23.00;54.70
74294;DHT22;64044;59.904;10.738;2023-06-14T07:59:56;23.00;54.40
74294;DHT22;64044;59.904;10.738;2023-06-14T08:02:22;23.00;54.20
74294;DHT22;64044;59.904;10.738;2023-06-14T08:04:48;23.00;54.20
74294;DHT22;64044;59.904;10.738;2023-06-14T08:07:14;23.00;54.20
74294;DHT22;64044;59.904;10.738;2023-06-14T08:09:40;23.10;54.30
74294;DHT22;64044;59.904;10.738;2023-06-14T08:12:31;23.10;54.60
74294;DHT22;64044;59.904;10.738;2023-06-14T08:14:57;23.10;55.00
74294;DHT22;64044;59.904;10.738;2023-06-14T08:17:23;23.10;54.70
74294;DHT22;64044;59.904;10.738;2023-06-14T08:19:49;23.10;54.00
74294;DHT22;64044;59.904;10.738;2023-06-14T08:22:15;23.10;54.20
74294;DHT22;64044;59.904;10.738;2023-06-14T08:24:41;23.20;54.30
74294;DHT22;64044;59.904;10.738;2023-06-14T08:27:07;23.10;54.60
74294;DHT22;64044;59.904;10.738;2023-06-14T08:29:33;23.10;54.20
74294;DHT22;64044;59.904;10.738;2023-06-14T08:31:59;23.10;54.00
74294;DHT22;64044;59.904;10.738;2023-06-14T08:34:24;23.10;54.10
74294;DHT22;64044;59.904;10.738;2023-06-14T08:36:51;23.10;54.40
74294;DHT22;64044;59.904;10.738;2023-06-14T08:39:16;23.10;54.50
74294;DHT22;64044;59.904;10.738;2023-06-14T08:41:46;23.10;54.60
74294;DHT22;64044;59.904;10.738;2023-06-14T08:44:13;23.10;55.60
74294;DHT22;64044;59.904;10.738;2023-06-14T08:46:41;23.20;54.70
74294;DHT22;64044;59.904;10.738;2023-06-14T08:49:08;23.20;54.40
74294;DHT22;64044;59.904;10.738;2023-06-14T08:51:36;23.20;54.50
74294;DHT22;64044;59.904;10.738;2023-06-14T08:54:03;23.20;54.30
74294;DHT22;64044;59.904;10.738;2023-06-14T08:56:30;23.20;54.40
74294;DHT22;64044;59.904;10.738;2023-06-14T08:58:57;23.20;54.80
74294;DHT22;64044;59.904;10.738;2023-06-14T09:01:26;23.20;54.50
74294;DHT22;64044;59.904;10.738;2023-06-14T09:03:52;23.30;54.70
74294;DHT22;64044;59.904;10.738;2023-06-14T09:06:21;23.30;54.70
74294;DHT22;64044;59.904;10.738;2023-06-14T09:08:48;23.30;54.60
74294;DHT22;64044;59.904;10.738;2023-06-14T09:11:16;23.30;54.40
74294;DHT22;64044;59.904;10.738;2023-06-14T09:13:45;23.30;54.40
74294;DHT22;64044;59.904;10.738;2023-06-14T09:16:11;23.30;54.30
74294;DHT22;64044;59.904;10.738;2023-06-14T09:18:42;23.30;54.60
74294;DHT22;64044;59.904;10.738;2023-06-14T09:21:14;23.30;54.40
74294;DHT22;64044;59.904;10.738;2023-06-14T09:23:45;23.30;54.90
74294;DHT22;64044;59.904;10.738;2023-06-14T09:26:18;23.30;54.90
74294;DHT22;64044;59.904;10.738;2023-06-14T09:28:50;23.30;55.00
74294;DHT22;64044;59.904;10.738;2023-06-14T09:31:20;23.30;55.00
74294;DHT22;64044;59.904;10.738;2023-06-14T09:33:48;23.30;54.90
74294;DHT22;64044;59.904;10.738;2023-06-14T09:36:20;23.40;55.20
74294;DHT22;64044;59.904;10.738;2023-06-14T09:41:19;23.40;54.40
74294;DHT22;64044;59.904;10.738;2023-06-14T09:43:47;23.30;54.30
74294;DHT22;64044;59.904;10.738;2023-06-14T09:46:13;23.40;54.40
74294;DHT22;64044;59.904;10.738;2023-06-14T09:48:39;23.40;54.00
74294;DHT22;64044;59.904;10.738;2023-06-14T09:51:10;23.40;53.80
74294;DHT22;64044;59.904;10.738;2023-06-14T09:53:36;23.40;53.80
74294;DHT22;64044;59.904;10.738;2023-06-14T09:56:04;23.40;53.70
74294;DHT22;64044;59.904;10.738;2023-06-14T09:58:30;23.50;53.80
74294;DHT22;64044;59.904;10.738;2023-06-14T10:00:59;23.50;53.90
74294;DHT22;64044;59.904;10.738;2023-06-14T10:03:28;23.50;53.70
74294;DHT22;64044;59.904;10.738;2023-06-14T10:06:01;23.60;54.10
74294;DHT22;64044;59.904;10.738;2023-06-14T10:08:30;23.60;54.00
74294;DHT22;64044;59.904;10.738;2023-06-14T10:10:58;23.60;54.00
74294;DHT22;64044;59.904;10.738;2023-06-14T10:13:26;23.70;54.20
74294;DHT22;64044;59.904;10.738;2023-06-14T10:16:15;23.70;54.30
74294;DHT22;64044;59.904;10.738;2023-06-14T10:24:05;23.90;54.20
74294;DHT22;64044;59.904;10.738;2023-06-14T10:26:32;23.90;54.10
74294;DHT22;64044;59.904;10.738;2023-06-14T10:29:08;24.00;54.00
74294;DHT22;64044;59.904;10.738;2023-06-14T10:31:50;24.00;54.10
74294;DHT22;64044;59.904;10.738;2023-06-14T10:37:08;24.10;53.70
74294;DHT22;64044;59.904;10.738;2023-06-14T10:39:44;24.20;52.50
74294;DHT22;64044;59.904;10.738;2023-06-14T10:42:11;24.30;52.90
74294;DHT22;64044;59.904;10.738;2023-06-14T10:44:38;24.30;52.60
74294;DHT22;64044;59.904;10.738;2023-06-14T10:47:07;24.40;52.60
74294;DHT22;64044;59.904;10.738;2023-06-14T10:49:42;24.50;51.90
74294;DHT22;64044;59.904;10.738;2023-06-14T10:52:09;24.60;52.40
74294;DHT22;64044;59.904;10.738;2023-06-14T10:55:02;24.60;52.40
74294;DHT22;64044;59.904;10.738;2023-06-14T10:57:29;24.70;52.60
74294;DHT22;64044;59.904;10.738;2023-06-14T10:59:58;24.80;51.80
74294;DHT22;64044;59.904;10.738;2023-06-14T11:02:51;24.90;51.90
74294;DHT22;64044;59.904;10.738;2023-06-14T11:05:25;25.00;51.30
74294;DHT22;64044;59.904;10.738;2023-06-14T11:10:59;25.20;50.10
74294;DHT22;64044;59.904;10.738;2023-06-14T11:13:26;25.40;51.00
74294;DHT22;64044;59.904;10.738;2023-06-14T11:15:52;25.50;50.90
74294;DHT22;64044;59.904;10.738;2023-06-14T11:18:23;25.60;50.60
74294;DHT22;64044;59.904;10.738;2023-06-14T11:20:50;25.70;49.90
74294;DHT22;64044;59.904;10.738;2023-06-14T11:23:16;25.80;50.50
74294;DHT22;64044;59.904;10.738;2023-06-14T11:25:42;25.90;49.00
74294;DHT22;64044;59.904;10.738;2023-06-14T11:28:08;26.00;49.70
74294;DHT22;64044;59.904;10.738;2023-06-14T11:30:33;26.10;50.20
74294;DHT22;64044;59.904;10.738;2023-06-14T11:32:59;26.20;49.50
74294;DHT22;64044;59.904;10.738;2023-06-14T11:35:26;26.40;49.00
74294;DHT22;64044;59.904;10.738;2023-06-14T11:37:55;26.40;49.20
74294;DHT22;64044;59.904;10.738;2023-06-14T11:40:25;26.60;48.30
74294;DHT22;64044;59.904;10.738;2023-06-14T11:42:58;26.60;46.80
74294;DHT22;64044;59.904;10.738;2023-06-14T11:45:25;26.80;46.30
74294;DHT22;64044;59.904;10.738;2023-06-14T11:47:50;26.90;46.60
74294;DHT22;64044;59.904;10.738;2023-06-14T11:50:16;27.00;47.10
74294;DHT22;64044;59.904;10.738;2023-06-14T11:52:42;27.30;46.80
74294;DHT22;64044;59.904;10.738;2023-06-14T11:55:08;27.40;45.90
74294;DHT22;64044;59.904;10.738;2023-06-14T11:57:35;27.70;43.70
74294;DHT22;64044;59.904;10.738;2023-06-14T12:00:06;27.90;44.00
74294;DHT22;64044;59.904;10.738;2023-06-14T12:02:37;28.10;43.10
74294;DHT22;64044;59.904;10.738;2023-06-14T12:05:07;28.40;43.70
74294;DHT22;64044;59.904;10.738;2023-06-14T12:07:39;28.70;43.20
74294;DHT22;64044;59.904;10.738;2023-06-14T12:10:08;29.10;41.10
74294;DHT22;64044;59.904;10.738;2023-06-14T12:12:39;29.40;40.90
74294;DHT22;64044;59.904;10.738;2023-06-14T12:15:06;29.80;39.80
74294;DHT22;64044;59.904;10.738;2023-06-14T12:17:36;30.20;39.90
74294;DHT22;64044;59.904;10.738;2023-06-14T12:20:08;30.50;38.80
74294;DHT22;64044;59.904;10.738;2023-06-14T12:22:46;31.00;36.60
74294;DHT22;64044;59.904;10.738;2023-06-14T12:25:24;31.30;36.30
74294;DHT22;64044;59.904;10.738;2023-06-14T12:27:55;31.70;32.80
74294;DHT22;64044;59.904;10.738;2023-06-14T12:30:21;32.10;34.50
74294;DHT22;64044;59.904;10.738;2023-06-14T12:32:47;32.60;35.30
74294;DHT22;64044;59.904;10.738;2023-06-14T12:35:14;33.00;33.90
74294;DHT22;64044;59.904;10.738;2023-06-14T12:37:40;33.30;32.30
74294;DHT22;64044;59.904;10.738;2023-06-14T12:40:06;33.70;30.70
74294;DHT22;64044;59.904;10.738;2023-06-14T12:42:33;34.00;30.00
74294;DHT22;64044;59.904;10.738;2023-06-14T12:45:02;34.40;29.80
74294;DHT22;64044;59.904;10.738;2023-06-14T12:47:28;34.70;29.70
74294;DHT22;64044;59.904;10.738;2023-06-14T12:49:53;35.00;29.50
74294;DHT22;64044;59.904;10.738;2023-06-14T12:52:19;35.30;28.40
74294;DHT22;64044;59.904;10.738;2023-06-14T12:54:45;35.60;27.60
74294;DHT22;64044;59.904;10.738;2023-06-14T12:57:11;35.90;27.80
74294;DHT22;64044;59.904;10.738;2023-06-14T12:59:37;36.10;27.60
74294;DHT22;64044;59.904;10.738;2023-06-14T13:02:13;36.50;27.90
74294;DHT22;64044;59.904;10.738;2023-06-14T13:04:40;36.70;28.00
74294;DHT22;64044;59.904;10.738;2023-06-14T13:07:06;36.90;28.40
74294;DHT22;64044;59.904;10.738;2023-06-14T13:09:32;37.10;28.00
74294;DHT22;64044;59.904;10.738;2023-06-14T13:11:57;37.20;27.00
74294;DHT22;64044;59.904;10.738;2023-06-14T13:14:23;37.40;27.30
74294;DHT22;64044;59.904;10.738;2023-06-14T13:16:49;37.60;27.10
74294;DHT22;64044;59.904;10.738;2023-06-14T13:19:15;37.80;27.00
74294;DHT22;64044;59.904;10.738;2023-06-14T13:21:41;37.90;26.70
74294;DHT22;64044;59.904;10.738;2023-06-14T13:24:33;38.10;26.60
74294;DHT22;64044;59.904;10.738;2023-06-14T13:26:58;38.20;26.70
74294;DHT22;64044;59.904;10.738;2023-06-14T13:29:25;38.20;26.20
74294;DHT22;64044;59.904;10.738;2023-06-14T13:31:52;38.40;25.50
74294;DHT22;64044;59.904;10.738;2023-06-14T13:34:18;38.50;26.30
74294;DHT22;64044;59.904;10.738;2023-06-14T13:36:44;38.60;26.40
74294;DHT22;64044;59.904;10.738;2023-06-14T13:39:10;38.70;26.20
74294;DHT22;64044;59.904;10.738;2023-06-14T13:41:36;38.90;26.10
74294;DHT22;64044;59.904;10.738;2023-06-14T13:44:02;39.00;25.90
74294;DHT22;64044;59.904;10.738;2023-06-14T13:46:30;39.20;25.60
74294;DHT22;64044;59.904;10.738;2023-06-14T13:48:56;39.30;25.30
74294;DHT22;64044;59.904;10.738;2023-06-14T13:51:23;39.50;26.20
74294;DHT22;64044;59.904;10.738;2023-06-14T13:53:49;39.60;24.90
74294;DHT22;64044;59.904;10.738;2023-06-14T13:56:16;39.70;24.60
74294;DHT22;64044;59.904;10.738;2023-06-14T13:58:42;39.80;25.30
74294;DHT22;64044;59.904;10.738;2023-06-14T14:01:08;39.80;25.60
74294;DHT22;64044;59.904;10.738;2023-06-14T14:03:34;39.90;25.40
74294;DHT22;64044;59.904;10.738;2023-06-14T14:06:03;40.10;25.30
74294;DHT22;64044;59.904;10.738;2023-06-14T14:08:29;40.20;24.60
74294;DHT22;64044;59.904;10.738;2023-06-14T14:10:56;40.30;24.70
74294;DHT22;64044;59.904;10.738;2023-06-14T14:13:22;40.40;24.70
74294;DHT22;64044;59.904;10.738;2023-06-14T14:15:48;40.50;24.90
74294;DHT22;64044;59.904;10.738;2023-06-14T14:18:14;40.60;24.60
74294;DHT22;64044;59.904;10.738;2023-06-14T14:20:41;40.70;24.80
74294;DHT22;64044;59.904;10.738;2023-06-14T14:23:06;40.90;25.20
74294;DHT22;64044;59.904;10.738;2023-06-14T14:25:32;41.10;25.10
74294;DHT22;64044;59.904;10.738;2023-06-14T14:27:58;41.30;25.00
74294;DHT22;64044;59.904;10.738;2023-06-14T14:30:23;41.40;24.80
74294;DHT22;64044;59.904;10.738;2023-06-14T14:32:50;41.40;24.10
74294;DHT22;64044;59.904;10.738;2023-06-14T14:35:19;41.40;24.00
74294;DHT22;64044;59.904;10.738;2023-06-14T14:37:44;41.40;23.60
74294;DHT22;64044;59.904;10.738;2023-06-14T14:40:11;41.50;23.00
74294;DHT22;64044;59.904;10.738;2023-06-14T14:42:37;41.50;23.40
74294;DHT22;64044;59.904;10.738;2023-06-14T14:45:03;41.60;23.50
74294;DHT22;64044;59.904;10.738;2023-06-14T14:47:29;41.70;23.30
74294;DHT22;64044;59.904;10.738;2023-06-14T14:49:55;41.80;23.00
74294;DHT22;64044;59.904;10.738;2023-06-14T14:52:21;41.90;21.90
74294;DHT22;64044;59.904;10.738;2023-06-14T14:54:46;42.10;21.10
74294;DHT22;64044;59.904;10.738;2023-06-14T14:57:12;42.20;21.50
74294;DHT22;64044;59.904;10.738;2023-06-14T14:59:38;42.20;20.60
74294;DHT22;64044;59.904;10.738;2023-06-14T15:02:03;42.40;20.20
74294;DHT22;64044;59.904;10.738;2023-06-14T15:04:29;42.40;20.90
74294;DHT22;64044;59.904;10.738;2023-06-14T15:06:55;42.50;21.30
74294;DHT22;64044;59.904;10.738;2023-06-14T15:09:21;42.50;20.60
74294;DHT22;64044;59.904;10.738;2023-06-14T15:11:47;42.60;20.90
74294;DHT22;64044;59.904;10.738;2023-06-14T15:14:12;42.60;20.20
74294;DHT22;64044;59.904;10.738;2023-06-14T15:16:40;42.60;20.10
74294;DHT22;64044;59.904;10.738;2023-06-14T15:19:06;42.50;20.50
74294;DHT22;64044;59.904;10.738;2023-06-14T15:21:31;42.50;21.30
74294;DHT22;64044;59.904;10.738;2023-06-14T15:23:57;42.50;21.10
74294;DHT22;64044;59.904;10.738;2023-06-14T15:26:23;42.40;21.50
74294;DHT22;64044;59.904;10.738;2023-06-14T15:28:50;42.30;22.10
74294;DHT22;64044;59.904;10.738;2023-06-14T15:31:16;42.20;22.70